createdAt,value
2023-03-15T00:00:17.964Z,501.00
2023-03-15T00:01:17.953Z,501.00
2023-03-15T00:02:17.970Z,501.00
2023-03-15T00:03:17.973Z,502.00
2023-03-15T00:04:17.936Z,499.00
2023-03-15T00:05:17.835Z,502.00
2023-03-15T00:06:17.888Z,504.00
2023-03-15T00:07:17.854Z,505.00
2023-03-15T00:08:17.748Z,504.00
2023-03-15T00:09:17.787Z,504.00
2023-03-15T00:10:17.690Z,503.00
2023-03-15T00:11:17.790Z,501.00
2023-03-15T00:12:17.676Z,498.00
2023-03-15T00:13:17.636Z,498.00
2023-03-15T00:14:17.675Z,497.00
2023-03-15T00:15:17.565Z,497.00
2023-03-15T00:16:17.880Z,495.00
2023-03-15T00:17:17.574Z,496.00
2023-03-15T00:18:17.499Z,494.00
2023-03-15T00:19:17.500Z,495.00
2023-03-15T00:20:17.485Z,495.00
2023-03-15T00:21:17.439Z,493.00
2023-03-15T00:22:17.485Z,494.00
2023-03-15T00:23:17.374Z,493.00
2023-03-15T00:24:17.444Z,495.00
2023-03-15T00:25:17.366Z,495.00
2023-03-15T00:26:17.286Z,497.00
2023-03-15T00:27:17.296Z,496.00
2023-03-15T00:28:17.281Z,493.00
2023-03-15T00:29:17.219Z,491.00
2023-03-15T00:30:17.220Z,489.00
2023-03-15T00:31:17.255Z,488.00
2023-03-15T00:32:17.128Z,488.00
2023-03-15T00:33:17.111Z,487.00
2023-03-15T00:34:17.155Z,486.00
2023-03-15T00:35:17.067Z,487.00
2023-03-15T00:36:17.081Z,485.00
2023-03-15T00:37:17.036Z,486.00
2023-03-15T00:38:16.988Z,488.00
2023-03-15T00:39:16.960Z,489.00
2023-03-15T00:40:16.982Z,489.00
2023-03-15T00:41:16.939Z,491.00
2023-03-15T00:42:16.987Z,489.00
2023-03-15T00:43:16.954Z,489.00
2023-03-15T00:44:16.932Z,488.00
2023-03-15T00:45:16.883Z,490.00
2023-03-15T00:46:16.859Z,491.00
2023-03-15T00:47:16.775Z,493.00
2023-03-15T00:48:16.758Z,493.00
2023-03-15T00:49:16.758Z,493.00
2023-03-15T00:50:16.772Z,492.00
2023-03-15T00:51:16.682Z,490.00
2023-03-15T00:52:16.666Z,491.00
2023-03-15T00:53:16.663Z,493.00
2023-03-15T00:54:16.634Z,495.00
2023-03-15T00:55:16.610Z,494.00
2023-03-15T00:56:16.636Z,492.00
2023-03-15T00:57:16.589Z,489.00
2023-03-15T00:58:16.585Z,491.00
2023-03-15T00:59:16.612Z,493.00
2023-03-15T01:00:16.507Z,494.00
2023-03-15T01:01:16.475Z,494.00
2023-03-15T01:02:16.469Z,493.00
2023-03-15T01:03:16.501Z,489.00
2023-03-15T01:04:16.430Z,489.00
2023-03-15T01:05:16.435Z,488.00
2023-03-15T01:06:16.382Z,489.00
2023-03-15T01:07:16.386Z,488.00
2023-03-15T01:08:16.308Z,487.00
2023-03-15T01:09:16.297Z,487.00
2023-03-15T01:10:16.340Z,488.00
2023-03-15T01:11:16.234Z,489.00
2023-03-15T01:12:16.205Z,490.00
2023-03-15T01:13:16.179Z,490.00
2023-03-15T01:14:16.214Z,491.00
2023-03-15T01:15:16.161Z,494.00
2023-03-15T01:16:16.185Z,494.00
2023-03-15T01:17:16.100Z,493.00
2023-03-15T01:18:16.076Z,494.00
2023-03-15T01:19:16.075Z,497.00
2023-03-15T01:20:16.072Z,498.00
2023-03-15T01:21:16.032Z,498.00
2023-03-15T01:22:16.006Z,497.00
2023-03-15T01:23:16.853Z,496.00
2023-03-15T01:24:15.971Z,494.00
2023-03-15T01:25:15.939Z,493.00
2023-03-15T01:26:15.933Z,491.00
2023-03-15T01:27:15.890Z,489.00
2023-03-15T01:28:15.936Z,488.00
2023-03-15T01:29:15.952Z,488.00
2023-03-15T01:30:15.841Z,486.00
2023-03-15T01:31:15.838Z,487.00
2023-03-15T01:32:15.758Z,490.00
2023-03-15T01:33:15.827Z,490.00
2023-03-15T01:34:15.709Z,490.00
2023-03-15T01:35:15.687Z,491.00
2023-03-15T01:36:15.725Z,489.00
2023-03-15T01:37:15.642Z,487.00
2023-03-15T01:38:15.637Z,488.00
2023-03-15T01:39:15.640Z,487.00
2023-03-15T01:40:15.630Z,488.00
2023-03-15T01:41:15.562Z,487.00
2023-03-15T01:42:15.575Z,488.00
2023-03-15T01:43:15.518Z,487.00
2023-03-15T01:44:15.463Z,485.00
2023-03-15T01:45:15.469Z,484.00
2023-03-15T01:46:15.521Z,484.00
2023-03-15T01:47:15.423Z,485.00
2023-03-15T01:48:15.441Z,485.00
2023-03-15T01:49:15.370Z,485.00
2023-03-15T01:50:15.400Z,484.00
2023-03-15T01:51:15.351Z,485.00
2023-03-15T01:52:15.441Z,485.00
2023-03-15T01:53:15.295Z,485.00
2023-03-15T01:54:15.291Z,485.00
2023-03-15T01:55:15.341Z,487.00
2023-03-15T01:56:15.234Z,491.00
2023-03-15T01:57:15.235Z,491.00
2023-03-15T01:58:15.182Z,490.00
2023-03-15T01:59:15.161Z,488.00
2023-03-15T02:00:15.210Z,487.00
2023-03-15T02:01:15.165Z,487.00
2023-03-15T02:02:15.200Z,486.00
2023-03-15T02:03:15.108Z,486.00
2023-03-15T02:04:15.045Z,487.00
2023-03-15T02:05:15.006Z,486.00
2023-03-15T02:06:15.035Z,485.00
2023-03-15T02:07:14.976Z,484.00
2023-03-15T02:08:14.941Z,485.00
2023-03-15T02:09:15.059Z,485.00
2023-03-15T02:10:14.910Z,488.00
2023-03-15T02:11:14.891Z,488.00
2023-03-15T02:12:14.852Z,488.00
2023-03-15T02:13:14.854Z,491.00
2023-03-15T02:14:14.815Z,493.00
2023-03-15T02:15:14.843Z,494.00
2023-03-15T02:16:14.879Z,493.00
2023-03-15T02:17:14.749Z,492.00
2023-03-15T02:18:14.746Z,489.00
2023-03-15T02:19:14.742Z,489.00
2023-03-15T02:20:14.692Z,487.00
2023-03-15T02:21:14.732Z,485.00
2023-03-15T02:22:14.700Z,484.00
2023-03-15T02:23:14.775Z,483.00
2023-03-15T02:24:14.624Z,483.00
2023-03-15T02:25:14.591Z,480.00
2023-03-15T02:26:14.574Z,478.00
2023-03-15T02:27:14.618Z,477.00
2023-03-15T02:28:14.534Z,476.00
2023-03-15T02:29:14.544Z,476.00
2023-03-15T02:30:14.475Z,477.00
2023-03-15T02:31:14.517Z,476.00
2023-03-15T02:32:14.469Z,477.00
2023-03-15T02:33:14.397Z,479.00
2023-03-15T02:34:14.400Z,477.00
2023-03-15T02:35:14.446Z,479.00
2023-03-15T02:36:14.393Z,480.00
2023-03-15T02:37:14.416Z,481.00
2023-03-15T02:38:14.333Z,482.00
2023-03-15T02:39:14.283Z,481.00
2023-03-15T02:40:14.274Z,481.00
2023-03-15T02:41:14.297Z,482.00
2023-03-15T02:42:14.250Z,481.00
2023-03-15T02:43:14.209Z,478.00
2023-03-15T02:44:14.240Z,475.00
2023-03-15T02:45:14.184Z,478.00
2023-03-15T02:46:14.256Z,478.00
2023-03-15T02:47:14.125Z,477.00
2023-03-15T02:48:14.102Z,477.00
2023-03-15T02:49:14.080Z,478.00
2023-03-15T02:50:14.083Z,479.00
2023-03-15T02:51:14.088Z,480.00
2023-03-15T02:52:14.174Z,478.00
2023-03-15T02:53:14.009Z,480.00
2023-03-15T02:54:13.987Z,479.00
2023-03-15T02:55:13.965Z,478.00
2023-03-15T02:56:13.946Z,482.00
2023-03-15T02:57:13.992Z,482.00
2023-03-15T02:58:13.893Z,482.00
2023-03-15T02:59:13.859Z,480.00
2023-03-15T03:00:13.886Z,477.00
2023-03-15T03:01:13.865Z,476.00
2023-03-15T03:02:13.846Z,474.00
2023-03-15T03:03:13.826Z,474.00
2023-03-15T03:04:13.764Z,474.00
2023-03-15T03:05:13.732Z,475.00
2023-03-15T03:06:13.722Z,475.00
2023-03-15T03:07:13.716Z,475.00
2023-03-15T03:08:13.651Z,474.00
2023-03-15T03:09:13.647Z,473.00
2023-03-15T03:10:13.608Z,474.00
2023-03-15T03:11:13.648Z,474.00
2023-03-15T03:12:13.586Z,475.00
2023-03-15T03:13:13.550Z,475.00
2023-03-15T03:14:13.565Z,476.00
2023-03-15T03:15:13.502Z,476.00
2023-03-15T03:16:13.555Z,477.00
2023-03-15T03:17:13.537Z,480.00
2023-03-15T03:18:13.448Z,480.00
2023-03-15T03:19:13.529Z,478.00
2023-03-15T03:20:13.446Z,477.00
2023-03-15T03:21:13.387Z,476.00
2023-03-15T03:22:13.568Z,475.00
2023-03-15T03:23:13.358Z,473.00
2023-03-15T03:24:13.359Z,471.00
2023-03-15T03:25:13.356Z,468.00
2023-03-15T03:26:13.354Z,470.00
2023-03-15T03:27:13.299Z,466.00
2023-03-15T03:28:13.355Z,465.00
2023-03-15T03:29:13.332Z,464.00
2023-03-15T03:30:13.272Z,463.00
2023-03-15T03:31:13.305Z,462.00
2023-03-15T03:32:13.231Z,460.00
2023-03-15T03:33:13.250Z,457.00
2023-03-15T03:34:13.216Z,457.00
2023-03-15T03:35:15.587Z,456.00
2023-03-15T03:36:13.272Z,455.00
2023-03-15T03:37:13.270Z,455.00
2023-03-15T03:38:13.204Z,453.00
2023-03-15T03:39:13.194Z,453.00
2023-03-15T03:40:13.170Z,451.00
2023-03-15T03:41:13.168Z,455.00
2023-03-15T03:42:13.349Z,451.00
2023-03-15T03:43:13.128Z,452.00
2023-03-15T03:44:13.220Z,453.00
2023-03-15T03:45:13.145Z,452.00
2023-03-15T03:46:13.236Z,452.00
2023-03-15T03:47:13.169Z,451.00
2023-03-15T03:48:13.172Z,451.00
2023-03-15T03:49:13.120Z,452.00
2023-03-15T03:50:13.109Z,449.00
2023-03-15T03:51:13.124Z,447.00
2023-03-15T03:52:13.067Z,448.00
2023-03-15T03:53:13.070Z,446.00
2023-03-15T03:54:13.025Z,446.00
2023-03-15T03:55:13.007Z,448.00
2023-03-15T03:56:13.031Z,447.00
2023-03-15T03:57:13.060Z,448.00
2023-03-15T03:58:13.146Z,449.00
2023-03-15T03:59:12.942Z,450.00
2023-03-15T04:00:12.950Z,450.00
2023-03-15T04:01:12.983Z,448.00
2023-03-15T04:02:12.957Z,447.00
2023-03-15T04:03:12.965Z,446.00
2023-03-15T04:04:13.016Z,446.00
2023-03-15T04:05:12.891Z,447.00
2023-03-15T04:06:12.857Z,448.00
2023-03-15T04:07:12.840Z,447.00
2023-03-15T04:08:12.875Z,450.00
2023-03-15T04:09:12.812Z,450.00
2023-03-15T04:10:12.792Z,452.00
2023-03-15T04:11:12.817Z,446.00
2023-03-15T04:12:12.785Z,446.00
2023-03-15T04:13:12.834Z,447.00
2023-03-15T04:14:12.727Z,446.00
2023-03-15T04:15:12.703Z,447.00
2023-03-15T04:16:12.762Z,447.00
2023-03-15T04:17:12.670Z,447.00
2023-03-15T04:18:12.662Z,448.00
2023-03-15T04:19:12.630Z,446.00
2023-03-15T04:20:12.651Z,443.00
2023-03-15T04:21:12.581Z,443.00
2023-03-15T04:22:12.574Z,443.00
2023-03-15T04:23:12.550Z,444.00
2023-03-15T04:24:12.539Z,444.00
2023-03-15T04:25:12.534Z,442.00
2023-03-15T04:26:12.497Z,442.00
2023-03-15T04:27:12.472Z,443.00
2023-03-15T04:28:12.495Z,443.00
2023-03-15T04:29:12.466Z,444.00
2023-03-15T04:30:12.441Z,444.00
2023-03-15T04:31:12.492Z,448.00
2023-03-15T04:32:12.391Z,448.00
2023-03-15T04:33:12.388Z,448.00
2023-03-15T04:34:12.380Z,447.00
2023-03-15T04:35:12.395Z,445.00
2023-03-15T04:36:12.378Z,443.00
2023-03-15T04:37:12.323Z,443.00
2023-03-15T04:38:12.306Z,445.00
2023-03-15T04:39:12.302Z,446.00
2023-03-15T04:40:12.268Z,447.00
2023-03-15T04:41:12.270Z,447.00
2023-03-15T04:42:12.286Z,447.00
2023-03-15T04:43:12.273Z,445.00
2023-03-15T04:44:12.211Z,443.00
2023-03-15T04:45:12.189Z,442.00
2023-03-15T04:46:12.172Z,442.00
2023-03-15T04:47:12.179Z,440.00
2023-03-15T04:48:12.195Z,439.00
2023-03-15T04:49:12.150Z,439.00
2023-03-15T04:50:12.144Z,437.00
2023-03-15T04:51:12.120Z,435.00
2023-03-15T04:52:12.144Z,436.00
2023-03-15T04:53:12.148Z,439.00
2023-03-15T04:54:12.078Z,439.00
2023-03-15T04:55:12.084Z,439.00
2023-03-15T04:56:12.057Z,437.00
2023-03-15T04:57:12.062Z,436.00
2023-03-15T04:58:12.039Z,436.00
2023-03-15T04:59:12.078Z,434.00
2023-03-15T05:00:12.048Z,433.00
2023-03-15T05:01:12.096Z,434.00
2023-03-15T05:02:12.067Z,435.00
2023-03-15T05:03:11.982Z,436.00
2023-03-15T05:04:11.998Z,436.00
2023-03-15T05:05:11.957Z,434.00
2023-03-15T05:06:11.946Z,434.00
2023-03-15T05:07:11.906Z,433.00
2023-03-15T05:08:11.988Z,431.00
2023-03-15T05:09:11.903Z,428.00
2023-03-15T05:10:11.900Z,427.00
2023-03-15T05:11:11.937Z,426.00
2023-03-15T05:12:11.851Z,427.00
2023-03-15T05:13:11.849Z,426.00
2023-03-15T05:14:11.895Z,429.00
2023-03-15T05:15:11.865Z,429.00
2023-03-15T05:16:11.859Z,429.00
2023-03-15T05:17:11.779Z,428.00
2023-03-15T05:18:11.815Z,429.00
2023-03-15T05:19:11.754Z,429.00
2023-03-15T05:20:11.772Z,429.00
2023-03-15T05:21:11.777Z,428.00
2023-03-15T05:22:11.720Z,432.00
2023-03-15T05:23:11.707Z,431.00
2023-03-15T05:24:11.848Z,430.00
2023-03-15T05:25:11.713Z,428.00
2023-03-15T07:59:08.872Z,511.00
2023-03-15T08:00:08.835Z,512.00
2023-03-15T08:01:08.769Z,512.00
2023-03-15T08:02:08.795Z,516.00
2023-03-15T08:03:08.756Z,518.00
2023-03-15T08:04:08.589Z,523.00
2023-03-15T08:05:08.573Z,522.00
2023-03-15T08:06:08.640Z,523.00
2023-03-15T08:07:08.507Z,527.00
2023-03-15T08:08:08.978Z,529.00
2023-03-15T08:09:08.405Z,532.00
2023-03-15T08:10:09.018Z,535.00
2023-03-15T08:11:08.311Z,538.00
2023-03-15T08:12:08.339Z,542.00
2023-03-15T08:13:08.265Z,544.00
2023-03-15T08:14:08.160Z,544.00
2023-03-15T08:15:08.159Z,548.00
2023-03-15T08:16:08.560Z,547.00
2023-03-15T08:17:08.066Z,547.00
2023-03-15T08:18:08.015Z,545.00
2023-03-15T08:19:08.082Z,540.00
2023-03-15T08:20:08.094Z,539.00
2023-03-15T08:21:07.910Z,538.00
2023-03-15T08:22:08.091Z,534.00
2023-03-15T08:23:07.873Z,533.00
2023-03-15T08:24:07.823Z,532.00
2023-03-15T08:25:07.716Z,530.00
2023-03-15T08:26:08.485Z,531.00
2023-03-15T08:27:07.636Z,530.00
2023-03-15T08:28:07.586Z,531.00
2023-03-15T08:29:07.577Z,529.00
2023-03-15T08:30:07.476Z,528.00
2023-03-15T08:31:07.909Z,527.00
2023-03-15T08:32:07.612Z,527.00
2023-03-15T08:33:08.402Z,524.00
2023-03-15T08:34:07.409Z,523.00
2023-03-15T08:35:07.334Z,521.00
2023-03-15T08:36:07.357Z,520.00
2023-03-15T08:37:07.723Z,553.00
2023-03-15T08:38:07.233Z,577.00
2023-03-15T08:39:07.149Z,586.00
2023-03-15T08:40:07.120Z,574.00
2023-03-15T08:41:07.049Z,569.00
2023-03-15T08:42:07.276Z,566.00
2023-03-15T08:43:06.973Z,564.00
2023-03-15T08:44:06.963Z,563.00
2023-03-15T08:45:06.940Z,564.00
2023-03-15T08:46:06.879Z,566.00
2023-03-15T08:47:06.817Z,567.00
2023-03-15T08:48:06.731Z,568.00
2023-03-15T08:49:06.719Z,569.00
2023-03-15T08:50:06.700Z,570.00
2023-03-15T08:51:06.630Z,574.00
2023-03-15T08:52:06.565Z,576.00
2023-03-15T08:53:06.595Z,578.00
2023-03-15T08:54:06.550Z,578.00
2023-03-15T08:55:06.429Z,577.00
2023-03-15T08:56:06.431Z,576.00
2023-03-15T08:57:06.525Z,578.00
2023-03-15T08:58:06.320Z,577.00
2023-03-15T08:59:07.006Z,578.00
2023-03-15T09:00:06.254Z,579.00
2023-03-15T09:01:06.167Z,576.00
2023-03-15T09:02:06.258Z,576.00
2023-03-15T09:03:06.105Z,579.00
2023-03-15T09:04:06.076Z,582.00
2023-03-15T09:05:06.027Z,585.00
2023-03-15T09:06:06.057Z,583.00
2023-03-15T09:07:05.936Z,583.00
2023-03-15T09:08:05.895Z,585.00
2023-03-15T09:09:05.868Z,585.00
2023-03-15T09:10:05.846Z,586.00
2023-03-15T09:11:05.740Z,586.00
2023-03-15T09:12:05.705Z,585.00
2023-03-15T09:13:06.490Z,588.00
2023-03-15T09:14:05.616Z,590.00
2023-03-15T09:15:07.565Z,593.00
2023-03-15T09:16:05.506Z,597.00
2023-03-15T09:17:06.118Z,595.00
2023-03-15T09:18:05.407Z,593.00
2023-03-15T09:19:05.433Z,595.00
2023-03-15T09:20:05.299Z,592.00
2023-03-15T09:21:05.278Z,592.00
2023-03-15T09:22:16.868Z,594.00
2023-03-15T09:23:06.175Z,594.00
2023-03-15T09:24:05.121Z,594.00
2023-03-15T09:25:05.163Z,599.00
2023-03-15T09:26:05.049Z,602.00
2023-03-15T09:27:05.068Z,606.00
2023-03-15T09:28:04.969Z,614.00
2023-03-15T09:29:04.925Z,614.00
2023-03-15T09:30:04.902Z,617.00
2023-03-15T09:31:04.838Z,621.00
2023-03-15T09:32:04.761Z,627.00
2023-03-15T09:33:04.862Z,629.00
2023-03-15T09:34:04.663Z,630.00
2023-03-15T09:35:04.649Z,633.00
2023-03-15T09:36:04.805Z,636.00
2023-03-15T09:37:04.490Z,639.00
2023-03-15T09:38:04.481Z,639.00
2023-03-15T09:39:04.402Z,643.00
2023-03-15T09:40:04.375Z,642.00
2023-03-15T09:41:04.359Z,646.00
2023-03-15T09:42:06.461Z,646.00
2023-03-15T09:43:04.239Z,648.00
2023-03-15T09:44:04.291Z,647.00
2023-03-15T09:45:04.159Z,648.00
2023-03-15T09:46:04.126Z,645.00
2023-03-15T09:47:04.062Z,647.00
2023-03-15T09:48:04.518Z,646.00
2023-03-15T09:49:03.898Z,650.00
2023-03-15T09:50:03.963Z,646.00
2023-03-15T09:51:03.807Z,596.00
2023-03-15T09:52:03.773Z,572.00
2023-03-15T09:53:03.737Z,545.00
2023-03-15T09:54:03.714Z,541.00
2023-03-15T09:55:03.782Z,533.00
2023-03-15T09:56:03.694Z,528.00
2023-03-15T09:57:03.644Z,526.00
2023-03-15T09:58:03.649Z,522.00
2023-03-15T09:59:03.657Z,531.00
2023-03-15T10:00:03.619Z,528.00
2023-03-15T10:01:03.586Z,523.00
2023-03-15T10:02:03.599Z,521.00
2023-03-15T10:03:03.567Z,516.00
2023-03-15T10:04:03.571Z,508.00
2023-03-15T10:05:03.509Z,501.00
2023-03-15T10:06:03.529Z,498.00
2023-03-15T10:07:03.515Z,494.00
2023-03-15T10:08:03.573Z,495.00
2023-03-15T10:09:03.485Z,488.00
2023-03-15T10:10:03.490Z,482.00
2023-03-15T10:11:03.512Z,478.00
2023-03-15T10:12:03.552Z,477.00
2023-03-15T10:13:03.444Z,475.00
2023-03-15T10:14:03.461Z,472.00
2023-03-15T10:15:03.431Z,473.00
2023-03-15T10:16:03.693Z,477.00
2023-03-15T10:17:03.430Z,475.00
2023-03-15T10:18:03.436Z,474.00
2023-03-15T10:19:03.482Z,472.00
2023-03-15T10:20:03.531Z,470.00
2023-03-15T10:21:03.407Z,465.00
2023-03-15T10:22:03.391Z,473.00
2023-03-15T10:23:03.426Z,473.00
2023-03-15T10:24:03.375Z,467.00
2023-03-15T10:25:03.396Z,465.00
2023-03-15T10:26:03.344Z,466.00
2023-03-15T10:27:03.444Z,469.00
2023-03-15T10:28:03.419Z,467.00
2023-03-15T10:29:03.365Z,468.00
2023-03-15T10:30:03.383Z,469.00
2023-03-15T10:31:03.397Z,466.00
2023-03-15T10:32:03.338Z,460.00
2023-03-15T10:33:03.631Z,462.00
2023-03-15T10:34:03.380Z,461.00
2023-03-15T10:35:03.334Z,461.00
2023-03-15T10:36:11.717Z,460.00
2023-03-15T10:37:07.069Z,458.00
2023-03-15T10:38:03.356Z,459.00
2023-03-15T10:39:03.330Z,459.00
2023-03-15T10:40:03.962Z,461.00
2023-03-15T10:41:03.343Z,462.00
2023-03-15T10:42:03.329Z,463.00
2023-03-15T10:43:03.339Z,466.00
2023-03-15T10:44:03.356Z,474.00
2023-03-15T10:45:03.316Z,487.00
2023-03-15T10:46:03.391Z,492.00
2023-03-15T10:47:12.992Z,491.00
2023-03-15T10:48:04.303Z,492.00
2023-03-15T10:49:03.303Z,495.00
2023-03-15T10:50:03.212Z,496.00
2023-03-15T10:51:03.226Z,498.00
2023-03-15T10:52:03.176Z,496.00
2023-03-15T10:53:04.072Z,498.00
2023-03-15T10:54:03.187Z,500.00
2023-03-15T10:55:04.523Z,502.00
2023-03-15T10:56:03.116Z,504.00
2023-03-15T10:57:03.140Z,504.00
2023-03-15T10:58:03.102Z,505.00
2023-03-15T10:59:12.434Z,505.00
2023-03-15T11:00:04.138Z,506.00
2023-03-15T11:01:03.002Z,508.00
2023-03-15T11:02:02.983Z,510.00
2023-03-15T11:03:03.020Z,511.00
2023-03-15T11:04:02.960Z,512.00
2023-03-15T11:05:02.938Z,514.00
2023-03-15T11:06:02.856Z,518.00
2023-03-15T11:07:02.870Z,520.00
2023-03-15T11:08:02.840Z,520.00
2023-03-15T11:09:02.797Z,520.00
2023-03-15T11:10:02.807Z,517.00
2023-03-15T11:11:02.730Z,517.00
2023-03-15T11:12:02.685Z,518.00
2023-03-15T11:13:03.536Z,518.00
2023-03-15T11:14:02.699Z,517.00
2023-03-15T11:15:02.603Z,515.00
2023-03-15T11:16:02.719Z,515.00
2023-03-15T11:17:02.584Z,516.00
2023-03-15T11:18:02.557Z,514.00
2023-03-15T11:19:02.561Z,511.00
2023-03-15T11:20:02.491Z,509.00
2023-03-15T11:21:02.475Z,511.00
2023-03-15T11:22:02.436Z,512.00
2023-03-15T11:23:02.391Z,513.00
2023-03-15T11:24:02.376Z,512.00
2023-03-15T11:25:02.473Z,509.00
2023-03-15T11:26:02.295Z,510.00
2023-03-15T11:27:02.271Z,511.00
2023-03-15T11:28:02.236Z,513.00
2023-03-15T11:29:02.232Z,516.00
2023-03-15T11:30:02.448Z,516.00
2023-03-15T11:31:02.123Z,520.00
2023-03-15T11:32:02.103Z,521.00
2023-03-15T11:33:02.272Z,523.00
2023-03-15T11:34:02.132Z,525.00
2023-03-15T11:35:01.986Z,526.00
2023-03-15T11:36:02.099Z,525.00
2023-03-15T11:37:08.373Z,526.00
2023-03-15T11:38:14.676Z,525.00
2023-03-15T11:39:03.198Z,523.00
2023-03-15T11:40:11.274Z,527.00
2023-03-15T11:41:02.837Z,527.00
2023-03-15T11:42:01.776Z,528.00
2023-03-15T11:43:01.734Z,527.00
2023-03-15T11:45:02.540Z,525.00
2023-03-15T12:06:03.701Z,533.00
2023-03-15T14:22:04.922Z,550.00
2023-03-15T15:43:54.840Z,569.00
2023-03-15T15:44:54.664Z,570.00
2023-03-15T15:45:54.626Z,571.00
2023-03-15T15:46:55.193Z,571.00
2023-03-15T15:47:54.676Z,574.00
2023-03-15T15:48:55.151Z,576.00
2023-03-15T15:49:54.583Z,577.00
2023-03-15T15:50:55.132Z,576.00
2023-03-15T15:51:54.440Z,578.00
2023-03-15T15:52:54.608Z,579.00
2023-03-15T15:53:54.375Z,579.00
2023-03-15T15:54:54.357Z,579.00
2023-03-15T15:55:54.311Z,580.00
2023-03-15T15:56:54.349Z,578.00
2023-03-15T15:57:55.717Z,581.00
2023-03-15T15:58:54.252Z,583.00
2023-03-15T15:59:54.256Z,582.00
2023-03-15T16:00:54.217Z,581.00
2023-03-15T16:02:00.549Z,581.00
2023-03-15T16:02:55.186Z,584.00
2023-03-15T16:03:54.162Z,582.00
2023-03-15T16:04:54.078Z,581.00
2023-03-15T16:05:54.146Z,580.00
2023-03-15T16:06:54.024Z,577.00
2023-03-15T16:07:54.053Z,578.00
2023-03-15T16:08:53.985Z,576.00
2023-03-15T16:09:55.401Z,576.00
2023-03-15T16:10:53.933Z,578.00
2023-03-15T16:11:53.961Z,579.00
2023-03-15T16:12:53.887Z,582.00
2023-03-15T16:13:53.883Z,583.00
2023-03-15T16:14:53.828Z,584.00
2023-03-15T16:15:53.950Z,585.00
2023-03-15T16:16:53.769Z,585.00
2023-03-15T16:17:53.731Z,587.00
2023-03-15T16:18:53.721Z,587.00
2023-03-15T16:19:53.756Z,589.00
2023-03-15T16:20:53.663Z,587.00
2023-03-15T16:21:53.665Z,586.00
2023-03-15T16:22:53.704Z,582.00
2023-03-15T16:23:53.591Z,580.00
2023-03-15T16:24:53.568Z,583.00
2023-03-15T16:25:53.546Z,582.00
2023-03-15T16:26:53.558Z,582.00
2023-03-15T16:27:53.529Z,580.00
2023-03-15T16:28:53.474Z,579.00
2023-03-15T16:29:53.438Z,578.00
2023-03-15T16:30:53.488Z,580.00
2023-03-15T16:31:54.719Z,581.00
2023-03-15T16:32:53.455Z,582.00
2023-03-15T16:33:53.370Z,586.00
2023-03-15T16:34:53.380Z,588.00
2023-03-15T16:35:53.442Z,589.00
2023-03-15T16:36:53.291Z,590.00
2023-03-15T16:37:53.280Z,589.00
2023-03-15T16:38:53.259Z,587.00
2023-03-15T16:39:53.225Z,588.00
2023-03-15T16:40:53.297Z,586.00
2023-03-15T16:41:53.255Z,586.00
2023-03-15T16:42:53.135Z,587.00
2023-03-15T16:43:53.144Z,588.00
2023-03-15T16:44:53.096Z,587.00
2023-03-15T16:45:53.079Z,586.00
2023-03-15T16:46:53.125Z,587.00
2023-03-15T16:47:53.076Z,590.00
2023-03-15T16:48:53.072Z,591.00
2023-03-15T16:49:53.010Z,593.00
2023-03-15T16:50:52.985Z,592.00
2023-03-15T16:51:53.022Z,592.00
2023-03-15T16:52:52.998Z,593.00
2023-03-15T16:54:02.248Z,595.00
2023-03-15T16:54:53.947Z,594.00
2023-03-15T16:55:52.929Z,595.00
2023-03-15T16:56:52.926Z,594.00
2023-03-15T16:57:52.899Z,591.00
2023-03-15T16:58:52.892Z,591.00
2023-03-15T16:59:52.880Z,595.00
2023-03-15T17:00:52.854Z,594.00
2023-03-15T17:01:52.840Z,595.00
2023-03-15T17:02:52.831Z,596.00
2023-03-15T17:03:52.846Z,596.00
2023-03-15T17:04:52.828Z,598.00
2023-03-15T17:05:52.789Z,597.00
2023-03-15T17:06:52.823Z,598.00
2023-03-15T17:07:52.767Z,598.00
2023-03-15T17:08:52.750Z,600.00
2023-03-15T17:09:52.787Z,600.00
2023-03-15T17:10:52.709Z,600.00
2023-03-15T17:11:52.642Z,601.00
2023-03-15T17:12:52.632Z,601.00
2023-03-15T17:13:52.602Z,599.00
2023-03-15T17:14:52.607Z,601.00
2023-03-15T17:15:52.636Z,599.00
2023-03-15T17:16:52.556Z,598.00
2023-03-15T17:17:52.553Z,601.00
2023-03-15T17:18:52.546Z,601.00
2023-03-15T17:19:52.525Z,602.00
2023-03-15T17:20:52.501Z,602.00
2023-03-15T17:21:52.497Z,601.00
2023-03-15T17:22:52.453Z,604.00
2023-03-15T17:23:52.499Z,603.00
2023-03-15T17:24:52.421Z,603.00
2023-03-15T17:25:52.418Z,602.00
2023-03-15T17:26:52.392Z,601.00
2023-03-15T17:27:52.456Z,601.00
2023-03-15T17:28:52.368Z,599.00
2023-03-15T17:29:52.351Z,600.00
2023-03-15T17:30:59.847Z,600.00
2023-03-15T17:31:53.340Z,597.00
2023-03-15T17:32:52.368Z,599.00
2023-03-15T17:33:52.310Z,599.00
2023-03-15T17:34:52.265Z,600.00
2023-03-15T17:35:52.294Z,600.00
2023-03-15T17:36:52.237Z,598.00
2023-03-15T17:37:52.233Z,600.00
2023-03-15T17:38:52.217Z,599.00
2023-03-15T17:39:52.203Z,602.00
2023-03-15T17:40:52.209Z,603.00
2023-03-15T17:41:52.183Z,603.00
2023-03-15T17:42:52.190Z,604.00
2023-03-15T17:43:52.138Z,604.00
2023-03-15T17:44:52.146Z,603.00
2023-03-15T17:45:52.110Z,605.00
2023-03-15T17:46:52.172Z,604.00
2023-03-15T17:47:52.077Z,605.00
2023-03-15T17:48:52.046Z,604.00
2023-03-15T17:49:52.050Z,603.00
2023-03-15T17:50:52.021Z,603.00
2023-03-15T17:51:52.043Z,605.00
2023-03-15T17:52:52.001Z,607.00
2023-03-15T17:53:51.953Z,608.00
2023-03-15T17:54:51.980Z,608.00
2023-03-15T17:55:51.919Z,607.00
2023-03-15T17:56:51.925Z,609.00
2023-03-15T17:57:55.060Z,610.00
2023-03-15T17:58:51.901Z,609.00
2023-03-15T17:59:51.865Z,608.00
2023-03-15T18:00:51.888Z,607.00
2023-03-15T18:01:51.915Z,605.00
2023-03-15T18:02:56.196Z,607.00
2023-03-15T18:03:51.818Z,603.00
2023-03-15T18:04:51.767Z,604.00
2023-03-15T18:06:51.735Z,603.00
2023-03-15T18:07:58.582Z,602.00
2023-03-15T18:09:51.773Z,598.00
2023-03-15T18:38:51.772Z,589.00
2023-03-15T19:15:50.384Z,592.00
2023-03-15T19:16:50.429Z,590.00
2023-03-15T19:17:50.356Z,590.00
2023-03-15T19:18:50.314Z,590.00
2023-03-15T19:19:50.279Z,588.00
2023-03-15T19:21:50.273Z,588.00
2023-03-15T19:22:50.266Z,588.00
2023-03-15T19:23:50.219Z,588.00
2023-03-15T19:24:50.192Z,587.00
2023-03-15T19:25:50.202Z,587.00
2023-03-15T19:26:50.162Z,583.00
2023-03-15T19:27:50.132Z,584.00
2023-03-15T19:28:50.088Z,586.00
2023-03-15T19:29:50.064Z,588.00
2023-03-15T19:30:50.107Z,588.00
2023-03-15T19:31:50.009Z,587.00
2023-03-15T19:32:50.315Z,590.00
2023-03-15T19:33:49.979Z,588.00
2023-03-15T19:34:49.957Z,587.00
2023-03-15T19:35:49.999Z,587.00
2023-03-15T19:36:49.883Z,585.00
2023-03-15T19:37:49.876Z,585.00
2023-03-15T19:38:49.850Z,586.00
2023-03-15T19:39:49.829Z,588.00
2023-03-15T19:40:49.836Z,588.00
2023-03-15T19:41:49.760Z,586.00
2023-03-15T19:42:49.728Z,586.00
2023-03-15T19:43:49.706Z,587.00
2023-03-15T19:44:49.680Z,586.00
2023-03-15T19:45:49.773Z,588.00
2023-03-15T19:46:49.681Z,585.00
2023-03-15T19:47:49.627Z,585.00
2023-03-15T19:48:49.616Z,584.00
2023-03-15T19:49:49.570Z,583.00
2023-03-15T19:50:49.562Z,583.00
2023-03-15T19:51:49.532Z,584.00
2023-03-15T19:52:49.496Z,582.00
2023-03-15T19:53:49.472Z,583.00
2023-03-15T19:54:50.096Z,582.00
2023-03-15T19:55:49.418Z,579.00
2023-03-15T19:56:49.408Z,576.00
2023-03-15T19:57:49.372Z,573.00
2023-03-15T19:58:49.408Z,572.00
2023-03-15T19:59:49.352Z,573.00
2023-03-15T20:00:49.326Z,574.00
2023-03-15T20:01:49.365Z,572.00
2023-03-15T20:02:49.276Z,573.00
2023-03-15T20:03:49.333Z,575.00
2023-03-15T20:04:49.231Z,575.00